Time;durP1;ratioP1;P1;durP2;ratioP2;P2;SDS_P1;SDS_P2;PMS_P1;PMS_P2;Temp;Humidity;BMP_temperature;BMP_pressure;BME280_temperature;BME280_humidity;BME280_pressure;Samples;Min_cycle;Max_cycle;Signal;HPM_P1;HPM_P2
2023/11/13 00:02:24;;;;;;;5.72;4.75;;;;;;;;;;4979518;28;20511;-57
2023/11/13 00:05:00;;;;;;;4.50;4.00;;;;;;;;;;4980354;28;20430;-57
2023/11/13 00:14:01;;;;;;;3.33;2.78;;;;;;;;;;4977835;28;20038;-57
2023/11/13 00:19:57;;;;;;;4.55;3.80;;;;;;;;;;4981696;28;20165;-57
2023/11/13 00:22:59;;;;;;;5.03;4.28;;;;;;;;;;4981961;28;20031;-57
2023/11/13 00:25:44;;;;;;;6.07;3.67;;;;;;;;;;4980520;28;20106;-57
2023/11/13 00:28:11;;;;;;;4.85;4.10;;;;;;;;;;4984574;28;20401;-58
2023/11/13 00:30:37;;;;;;;6.28;4.07;;;;;;;;;;4984908;28;20036;-57
2023/11/13 00:33:46;;;;;;;6.05;4.90;;;;;;;;;;4984895;28;20042;-57
2023/11/13 00:45:27;;;;;;;;;;;;;;;;;;4906595;29;20096;-57
2023/11/13 00:48:05;;;;;;;7.88;5.82;;;;;;;;;;4905080;29;19959;-57
2023/11/13 00:51:09;;;;;;;6.85;6.10;;;;;;;;;;4926826;29;20039;-57
2023/11/13 00:53:42;;;;;;;8.05;6.18;;;;;;;;;;4943292;29;20118;-57
2023/11/13 00:56:44;;;;;;;7.68;6.65;;;;;;;;;;4942592;29;20095;-57
2023/11/13 01:02:57;;;;;;;8.27;7.25;;;;;;;;;;4951929;28;20027;-57
2023/11/13 01:05:42;;;;;;;8.68;7.15;;;;;;;;;;4983959;28;20059;-58
2023/11/13 01:08:18;;;;;;;7.20;6.38;;;;;;;;;;4980818;28;20054;-57
2023/11/13 01:11:03;;;;;;;14.63;8.38;;;;;;;;;;4982490;28;20038;-58
2023/11/13 01:13:56;;;;;;;8.25;7.07;;;;;;;;;;4964992;28;20112;-58
2023/11/13 01:16:31;;;;;;;8.43;6.88;;;;;;;;;;4983505;28;20027;-59
2023/11/13 01:19:25;;;;;;;11.07;8.68;;;;;;;;;;4983432;28;20027;-59
2023/11/13 01:22:33;;;;;;;8.63;7.18;;;;;;;;;;4983821;28;20038;-58
2023/11/13 01:25:14;;;;;;;9.95;8.40;;;;;;;;;;4983518;28;20277;-58
2023/11/13 01:27:58;;;;;;;9.65;7.13;;;;;;;;;;4982593;28;20039;-58
2023/11/13 01:30:33;;;;;;;8.45;7.15;;;;;;;;;;4983700;28;20105;-58
2023/11/13 01:34:19;;;;;;;7.50;6.53;;;;;;;;;;4981935;28;20046;-58
2023/11/13 01:36:25;;;;;;;9.32;7.13;;;;;;;;;;4977828;28;20062;-59
2023/11/13 01:38:55;;;;;;;7.80;6.50;;;;;;;;;;4982552;28;20031;-58
2023/11/13 01:41:50;;;;;;;9.40;7.60;;;;;;;;;;4982539;28;20277;-58
2023/11/13 01:44:36;;;;;;;9.15;7.18;;;;;;;;;;4926077;29;20552;-58
2023/11/13 01:47:12;;;;;;;7.18;6.47;;;;;;;;;;4941509;29;20091;-58
2023/11/13 01:50:15;;;;;;;;;;;;;;;;;;;;;
2023/11/13 02:00:14;;;;;;;9.20;6.47;;;;;;;;;;4940509;29;20163;-58
2023/11/13 02:06:06;;;;;;;8.02;7.22;;;;;;;;;;4942312;29;20032;-59
2023/11/13 02:08:38;;;;;;;6.00;5.35;;;;;;;;;;4941297;29;20095;-59
2023/11/13 02:14:22;;;;;;;7.90;6.53;;;;;;;;;;4962595;28;20050;-59
2023/11/13 02:17:20;;;;;;;9.10;6.63;;;;;;;;;;4980914;28;20496;-59
2023/11/13 02:22:53;;;;;;;9.10;4.65;;;;;;;;;;4980161;28;20042;-59
2023/11/13 02:28:35;;;;;;;6.28;4.88;;;;;;;;;;4981461;28;20406;-59
2023/11/13 02:31:14;;;;;;;5.15;4.13;;;;;;;;;;4982189;28;20045;-59
2023/11/13 02:34:08;;;;;;;8.75;5.47;;;;;;;;;;4981032;28;20520;-59
2023/11/13 02:36:43;;;;;;;8.43;4.63;;;;;;;;;;4980081;28;20050;-59
2023/11/13 02:39:21;;;;;;;6.07;4.75;;;;;;;;;;4982062;28;20066;-59
2023/11/13 02:42:17;;;;;;;10.43;5.13;;;;;;;;;;4982797;28;20031;-59
2023/11/13 02:45:06;;;;;;;57.70;11.52;;;;;;;;;;4982198;28;20061;-59
2023/11/13 02:47:52;;;;;;;;;;;;;;;;;;;;;
2023/11/13 02:50:41;;;;;;;160.02;19.30;;;;;;;;;;4978811;28;20109;-59
2023/11/13 02:53:35;;;;;;;129.35;18.08;;;;;;;;;;4962744;28;20069;-58
2023/11/13 02:56:29;;;;;;;47.72;11.50;;;;;;;;;;4982182;28;20027;-58
2023/11/13 02:59:02;;;;;;;146.52;16.92;;;;;;;;;;4981549;28;20058;-59
2023/11/13 03:01:41;;;;;;;53.28;10.75;;;;;;;;;;4980427;28;20094;-59
2023/11/13 03:04:12;;;;;;;27.23;10.07;;;;;;;;;;4981656;28;20393;-59
2023/11/13 03:07:16;;;;;;;26.80;11.23;;;;;;;;;;4981368;28;20023;-58
2023/11/13 03:13:00;;;;;;;38.75;12.25;;;;;;;;;;4958176;28;20051;-59
2023/11/13 03:15:52;;;;;;;18.63;10.40;;;;;;;;;;4975784;28;20031;-59
2023/11/13 03:19:00;;;;;;;13.60;10.48;;;;;;;;;;4980830;28;20046;-59
2023/11/13 03:24:30;;;;;;;9.45;8.10;;;;;;;;;;4981259;28;20090;-59
2023/11/13 03:27:19;;;;;;;9.90;8.43;;;;;;;;;;4980929;28;20118;-58
2023/11/13 03:29:46;;;;;;;8.68;7.38;;;;;;;;;;4981060;28;20027;-59
2023/11/13 03:32:45;;;;;;;8.63;7.10;;;;;;;;;;4981037;28;20027;-59
2023/11/13 03:35:17;;;;;;;8.70;6.63;;;;;;;;;;4948300;28;20054;-59
2023/11/13 03:38:13;;;;;;;7.60;6.40;;;;;;;;;;4980412;28;20389;-59
2023/11/13 03:41:04;;;;;;;12.10;7.13;;;;;;;;;;4974657;28;20469;-59
2023/11/13 03:43:56;;;;;;;9.82;6.10;;;;;;;;;;4981221;28;20034;-59
2023/11/13 03:46:49;;;;;;;8.18;5.50;;;;;;;;;;4981250;28;20034;-59
2023/11/13 03:50:06;;;;;;;6.80;4.72;;;;;;;;;;4981306;28;20030;-59
2023/11/13 03:52:33;;;;;;;5.22;4.28;;;;;;;;;;4921192;29;20467;-59
2023/11/13 03:55:27;;;;;;;5.07;4.22;;;;;;;;;;4975325;28;20094;-58
2023/11/13 03:58:14;;;;;;;5.55;3.85;;;;;;;;;;4978868;28;20094;-59
2023/11/13 04:01:10;;;;;;;5.78;3.25;;;;;;;;;;4980366;28;20029;-59
2023/11/13 04:04:19;;;;;;;;;;;;;;;;;;;;;
2023/11/13 04:06:50;;;;;;;6.75;2.83;;;;;;;;;;4978968;28;20164;-59
2023/11/13 04:09:34;;;;;;;;;;;;;;;;;;;;;
2023/11/13 04:12:33;;;;;;;6.00;1.77;;;;;;;;;;4977577;28;20157;-59
2023/11/13 04:15:30;;;;;;;4.65;1.70;;;;;;;;;;4980038;28;20035;-59
2023/11/13 04:18:20;;;;;;;;;;;;;;;;;;;;;
2023/11/13 04:21:09;;;;;;;4.68;1.85;;;;;;;;;;4976290;28;20118;-59
2023/11/13 04:24:02;;;;;;;1.88;1.05;;;;;;;;;;4977994;28;20035;-59
2023/11/13 04:26:54;;;;;;;3.53;1.00;;;;;;;;;;4975613;28;20065;-59
2023/11/13 04:29:23;;;;;;;2.67;0.80;;;;;;;;;;4979774;28;20037;-59
2023/11/13 04:32:08;;;;;;;3.05;1.73;;;;;;;;;;4979133;28;20039;-59
2023/11/13 04:34:37;;;;;;;3.40;1.27;;;;;;;;;;4975535;28;20078;-59
2023/11/13 04:40:11;;;;;;;2.90;0.82;;;;;;;;;;4899604;29;20072;-59
2023/11/13 04:42:43;;;;;;;3.13;1.05;;;;;;;;;;4974360;28;20122;-59
2023/11/13 04:51:32;;;;;;;1.45;0.70;;;;;;;;;;4899458;29;20423;-59
2023/11/13 04:54:22;;;;;;;4.53;1.52;;;;;;;;;;4977075;28;20030;-59
2023/11/13 04:57:20;;;;;;;3.03;1.05;;;;;;;;;;4979036;28;20412;-59
2023/11/13 05:00:24;;;;;;;2.08;0.88;;;;;;;;;;4978556;28;20046;-59
2023/11/13 05:03:04;;;;;;;3.95;1.15;;;;;;;;;;4978246;28;20086;-60
2023/11/13 05:05:38;;;;;;;5.25;0.93;;;;;;;;;;4925221;29;20043;-59
2023/11/13 05:08:30;;;;;;;2.33;1.00;;;;;;;;;;4956279;29;20066;-59
2023/11/13 05:11:30;;;;;;;2.72;0.88;;;;;;;;;;4918627;29;20028;-59
2023/11/13 05:17:08;;;;;;;1.50;0.68;;;;;;;;;;4921135;29;20166;-59
2023/11/13 05:19:44;;;;;;;3.10;0.82;;;;;;;;;;4924886;29;21404;-59
2023/11/13 05:25:28;;;;;;;3.40;0.95;;;;;;;;;;4914353;28;20037;-60
2023/11/13 05:28:18;;;;;;;3.42;1.77;;;;;;;;;;4971510;28;20369;-60
2023/11/13 05:31:04;;;;;;;13.18;1.50;;;;;;;;;;4975133;28;20073;-59
2023/11/13 05:39:44;;;;;;;7.22;1.70;;;;;;;;;;4965262;28;20047;-59
2023/11/13 05:42:29;;;;;;;3.33;1.52;;;;;;;;;;4979789;28;20037;-59
2023/11/13 05:44:58;;;;;;;6.10;1.42;;;;;;;;;;4980239;28;20035;-59
2023/11/13 05:47:34;;;;;;;3.30;1.50;;;;;;;;;;4979631;28;20027;-59
2023/11/13 05:50:37;;;;;;;;;;;;;;;;;;;;;
2023/11/13 05:53:27;;;;;;;10.43;2.42;;;;;;;;;;4971963;28;20029;-60
2023/11/13 05:56:24;;;;;;;9.73;2.35;;;;;;;;;;4963097;28;20231;-60
2023/11/13 06:01:49;;;;;;;8.23;2.53;;;;;;;;;;4958969;28;20149;-59
2023/11/13 06:04:29;;;;;;;7.20;2.28;;;;;;;;;;4975849;28;20039;-59
2023/11/13 06:07:34;;;;;;;11.30;2.25;;;;;;;;;;4976666;28;20037;-59
2023/11/13 06:10:07;;;;;;;6.20;2.67;;;;;;;;;;4941280;28;20107;-59
2023/11/13 06:12:39;;;;;;;5.53;1.77;;;;;;;;;;4956436;29;20125;-60
2023/11/13 06:15:26;;;;;;;13.82;3.08;;;;;;;;;;4957775;28;20431;-60
2023/11/13 06:26:44;;;;;;;12.18;2.47;;;;;;;;;;4973743;28;20087;-59
2023/11/13 06:29:29;;;;;;;8.65;2.60;;;;;;;;;;4978234;28;20034;-60
2023/11/13 06:32:14;;;;;;;;;;;;;;;;;;;;;
2023/11/13 06:34:50;;;;;;;17.35;3.25;;;;;;;;;;4975369;28;20127;-59
2023/11/13 06:37:32;;;;;;;8.05;2.38;;;;;;;;;;4976542;28;20038;-60
2023/11/13 06:40:23;;;;;;;4.05;1.67;;;;;;;;;;4975317;28;20066;-59
2023/11/13 06:43:07;;;;;;;15.13;3.35;;;;;;;;;;4977420;28;20050;-60
2023/11/13 06:48:52;;;;;;;15.98;2.17;;;;;;;;;;4973980;28;20167;-60
2023/11/13 06:51:49;;;;;;;9.00;2.78;;;;;;;;;;4972695;28;20457;-59
2023/11/13 06:54:34;;;;;;;8.43;3.00;;;;;;;;;;4992416;28;20078;-58
2023/11/13 06:57:10;;;;;;;8.15;2.70;;;;;;;;;;4989444;28;20023;-59
2023/11/13 07:00:09;;;;;;;7.07;2.83;;;;;;;;;;4973079;28;20035;-59
2023/11/13 07:02:43;;;;;;;7.43;2.30;;;;;;;;;;4952970;28;20137;-59
2023/11/13 07:05:15;;;;;;;6.80;3.15;;;;;;;;;;4976588;28;20050;-59
2023/11/13 07:11:04;;;;;;;7.75;2.40;;;;;;;;;;4954859;29;20043;-59
2023/11/13 07:13:33;;;;;;;10.90;2.53;;;;;;;;;;4954469;29;20074;-59
2023/11/13 07:16:33;;;;;;;5.03;1.73;;;;;;;;;;4957654;28;20039;-60
2023/11/13 07:21:53;;;;;;;7.55;2.97;;;;;;;;;;4975203;28;20089;-60
2023/11/13 07:24:59;;;;;;;8.18;3.03;;;;;;;;;;4975119;28;20051;-59
2023/11/13 07:27:50;;;;;;;;;;;;;;;;;;;;;
2023/11/13 07:33:54;;;;;;;6.65;2.47;;;;;;;;;;4885335;29;20516;-60
2023/11/13 07:36:34;;;;;;;5.10;1.70;;;;;;;;;;4934068;29;20035;-60
2023/11/13 07:39:14;;;;;;;;;;;;;;;;;;;;;
2023/11/13 07:42:18;;;;;;;10.13;2.90;;;;;;;;;;4934936;29;20024;-60
2023/11/13 07:45:14;;;;;;;4.78;1.92;;;;;;;;;;4935374;29;20060;-60
2023/11/13 07:50:50;;;;;;;3.35;1.92;;;;;;;;;;4926084;28;20046;-60
2023/11/13 07:59:30;;;;;;;4.57;2.10;;;;;;;;;;4974807;28;20034;-60
2023/11/13 08:02:21;;;;;;;;;;;;;;;;;;;;;
2023/11/13 08:05:08;;;;;;;6.07;2.10;;;;;;;;;;4962786;28;20077;-59
2023/11/13 08:07:46;;;;;;;4.38;1.35;;;;;;;;;;4972640;28;20061;-59
2023/11/13 08:10:19;;;;;;;4.45;2.03;;;;;;;;;;4975937;28;20023;-58
2023/11/13 08:13:21;;;;;;;6.15;2.45;;;;;;;;;;4975254;28;20035;-59
2023/11/13 08:15:56;;;;;;;5.13;1.88;;;;;;;;;;4957527;28;20039;-59
2023/11/13 08:18:28;;;;;;;7.03;2.35;;;;;;;;;;4977304;28;20081;-61
2023/11/13 08:21:22;;;;;;;6.93;2.22;;;;;;;;;;4993868;28;20038;-59
2023/11/13 08:23:47;;;;;;;6.70;2.40;;;;;;;;;;4955140;29;20055;-60
2023/11/13 08:26:16;;;;;;;4.07;2.38;;;;;;;;;;4954802;28;20070;-60
2023/11/13 08:28:54;;;;;;;5.05;2.03;;;;;;;;;;4960009;28;20073;-59
2023/11/13 08:34:37;;;;;;;3.90;1.58;;;;;;;;;;4953757;28;20035;-60
2023/11/13 08:37:08;;;;;;;;;;;;;;;;;;4960703;28;20038;-61
2023/11/13 08:39:37;;;;;;;3.53;1.42;;;;;;;;;;4973373;28;19920;-60
2023/11/13 08:42:13;;;;;;;6.20;1.98;;;;;;;;;;4972296;28;20457;-59
2023/11/13 08:44:46;;;;;;;6.25;1.83;;;;;;;;;;4974091;28;20410;-60
2023/11/13 08:47:15;;;;;;;6.00;2.15;;;;;;;;;;4973574;28;20138;-60
2023/11/13 08:49:45;;;;;;;4.45;2.35;;;;;;;;;;4977206;28;20056;-60
2023/11/13 08:52:14;;;;;;;3.10;1.83;;;;;;;;;;4978230;28;20030;-60
2023/11/13 08:54:46;;;;;;;4.22;1.40;;;;;;;;;;4976624;28;20031;-60
2023/11/13 08:57:27;;;;;;;2.92;1.48;;;;;;;;;;4977651;28;20480;-60
2023/11/13 08:59:58;;;;;;;3.90;1.88;;;;;;;;;;4975053;28;20031;-61
2023/11/13 09:02:40;;;;;;;6.20;2.55;;;;;;;;;;4976532;28;20034;-59
2023/11/13 09:05:19;;;;;;;2.80;1.45;;;;;;;;;;4976592;28;20043;-60
2023/11/13 09:07:58;;;;;;;9.65;2.13;;;;;;;;;;4975633;28;20039;-60
2023/11/13 09:10:31;;;;;;;3.20;1.50;;;;;;;;;;4976680;28;20394;-59
2023/11/13 09:13:26;;;;;;;5.97;1.35;;;;;;;;;;4991802;28;20045;-60
2023/11/13 09:15:59;;;;;;;3.65;1.58;;;;;;;;;;4958704;28;20031;-60
2023/11/13 09:18:36;;;;;;;4.05;1.60;;;;;;;;;;4967264;28;20042;-61
2023/11/13 09:21:09;;;;;;;4.95;1.38;;;;;;;;;;4976099;28;20033;-59
2023/11/13 09:23:41;;;;;;;7.43;1.80;;;;;;;;;;4976907;28;20101;-60
2023/11/13 09:26:28;;;;;;;4.38;1.90;;;;;;;;;;4978206;28;20031;-60
2023/11/13 09:29:03;;;;;;;2.30;1.42;;;;;;;;;;4976260;28;20035;-59
2023/11/13 09:31:42;;;;;;;7.50;1.80;;;;;;;;;;4972239;28;20130;-59
2023/11/13 09:34:27;;;;;;;4.80;1.90;;;;;;;;;;4959479;28;20046;-59
2023/11/13 09:36:53;;;;;;;5.55;1.65;;;;;;;;;;4970784;28;20038;-62
2023/11/13 09:39:41;;;;;;;5.65;2.47;;;;;;;;;;4987792;28;20026;-59
2023/11/13 09:42:20;;;;;;;4.43;2.33;;;;;;;;;;4994303;28;20091;-60
2023/11/13 09:48:29;;;;;;;2.97;1.73;;;;;;;;;;4902988;29;20132;-60
2023/11/13 09:51:24;;;;;;;8.65;2.30;;;;;;;;;;4971607;28;20398;-60
2023/11/13 09:57:21;;;;;;;5.18;2.78;;;;;;;;;;4949423;28;20042;-58
2023/11/13 09:59:56;;;;;;;4.72;2.40;;;;;;;;;;4955660;28;20039;-58
2023/11/13 10:02:33;;;;;;;4.10;2.58;;;;;;;;;;4953689;29;20385;-58
2023/11/13 10:05:39;;;;;;;3.83;2.15;;;;;;;;;;4955600;28;20385;-58
2023/11/13 10:08:23;;;;;;;3.83;1.88;;;;;;;;;;4970308;28;20037;-58
2023/11/13 10:11:17;;;;;;;3.25;2.40;;;;;;;;;;4973316;28;20031;-58
2023/11/13 10:14:11;;;;;;;5.03;1.92;;;;;;;;;;4974307;28;20438;-59
2023/11/13 10:17:02;;;;;;;6.57;2.40;;;;;;;;;;4963298;28;20038;-60
2023/11/13 10:19:35;;;;;;;;;;;;;;;;;;4973576;28;20022;-60
2023/11/13 10:22:17;;;;;;;4.38;2.28;;;;;;;;;;4973600;28;19917;-57
2023/11/13 10:28:02;;;;;;;4.68;3.00;;;;;;;;;;4960949;28;20030;-60
2023/11/13 10:31:00;;;;;;;4.35;2.38;;;;;;;;;;4978638;28;20149;-60
2023/11/13 10:34:00;;;;;;;4.20;2.53;;;;;;;;;;4972828;28;20027;-60
2023/11/13 10:36:41;;;;;;;5.55;2.05;;;;;;;;;;4970664;28;20101;-60
2023/11/13 10:39:47;;;;;;;2.95;1.42;;;;;;;;;;4974391;28;20053;-60
2023/11/13 10:42:26;;;;;;;3.20;1.73;;;;;;;;;;4971789;28;20042;-60
2023/11/13 10:44:57;;;;;;;2.85;1.50;;;;;;;;;;4971569;28;20611;-60
2023/11/13 10:47:48;;;;;;;;;;;;;;;;;;;;;
2023/11/13 10:50:29;;;;;;;2.08;0.95;;;;;;;;;;4964363;28;20215;-60
2023/11/13 10:52:59;;;;;;;;;;;;;;;;;;4972962;28;20031;-60
2023/11/13 10:56:08;;;;;;;13.73;1.95;;;;;;;;;;4972161;28;19906;-60
2023/11/13 10:58:57;;;;;;;;;;;;;;;;;;;;;
2023/11/13 11:01:34;;;;;;;3.83;1.92;;;;;;;;;;4970602;28;20049;-60
2023/11/13 11:04:22;;;;;;;2.92;1.92;;;;;;;;;;4972539;28;20595;-60
2023/11/13 11:07:19;;;;;;;4.40;1.48;;;;;;;;;;4969518;28;20444;-60
2023/11/13 11:10:15;;;;;;;;;;;;;;;;;;;;;
2023/11/13 11:13:06;;;;;;;4.53;1.90;;;;;;;;;;4970283;28;20035;-60
2023/11/13 11:16:00;;;;;;;5.03;2.22;;;;;;;;;;4971902;28;20134;-60
2023/11/13 11:19:12;;;;;;;;;;;;;;;;;;;;;
2023/11/13 11:21:39;;;;;;;3.72;2.05;;;;;;;;;;4952994;28;20047;-60
2023/11/13 11:24:11;;;;;;;2.78;1.95;;;;;;;;;;4970273;28;20081;-60
2023/11/13 11:27:00;;;;;;;4.00;2.17;;;;;;;;;;4972298;28;20034;-60
2023/11/13 11:30:22;;;;;;;6.03;2.33;;;;;;;;;;4979741;28;20037;-60
2023/11/13 11:33:05;;;;;;;4.43;1.92;;;;;;;;;;4947818;28;20054;-60
2023/11/13 11:38:41;;;;;;;5.80;2.05;;;;;;;;;;4986438;28;20073;-60
2023/11/13 11:44:34;;;;;;;5.22;2.15;;;;;;;;;;4973666;28;20034;-60
2023/11/13 11:47:36;;;;;;;3.53;1.70;;;;;;;;;;4954213;29;20039;-60
2023/11/13 11:50:45;;;;;;;6.07;2.40;;;;;;;;;;4951076;28;20422;-60
2023/11/13 11:56:44;;;;;;;3.13;1.63;;;;;;;;;;4928160;29;20111;-60
2023/11/13 11:59:33;;;;;;;3.80;1.98;;;;;;;;;;4902913;29;20051;-60
2023/11/13 12:02:14;;;;;;;5.45;2.50;;;;;;;;;;4932448;29;20039;-60
2023/11/13 12:04:53;;;;;;;4.75;1.95;;;;;;;;;;4963548;28;20128;-60
2023/11/13 12:07:42;;;;;;;4.85;2.53;;;;;;;;;;4959056;28;20041;-60
2023/11/13 12:10:20;;;;;;;4.70;1.90;;;;;;;;;;4973858;28;20428;-60
2023/11/13 12:13:09;;;;;;;3.53;2.10;;;;;;;;;;4955215;28;20050;-60
2023/11/13 12:15:45;;;;;;;3.38;1.48;;;;;;;;;;4973127;28;20042;-60
2023/11/13 12:18:33;;;;;;;;;;;;;;;;;;;;;
2023/11/13 12:21:26;;;;;;;3.40;1.85;;;;;;;;;;4962800;28;20046;-60
2023/11/13 12:24:12;;;;;;;3.42;2.17;;;;;;;;;;4975374;28;20496;-60
2023/11/13 12:26:49;;;;;;;1.90;1.38;;;;;;;;;;4983262;28;20114;-60
2023/11/13 12:29:52;;;;;;;2.97;1.75;;;;;;;;;;4977663;28;20465;-60
2023/11/13 12:32:37;;;;;;;3.25;1.42;;;;;;;;;;4974729;28;20035;-60
2023/11/13 12:38:12;;;;;;;5.75;2.05;;;;;;;;;;4966183;28;20137;-60
2023/11/13 12:40:51;;;;;;;8.02;1.88;;;;;;;;;;4996948;28;20377;-60
2023/11/13 12:43:31;;;;;;;2.80;1.40;;;;;;;;;;4997134;28;20121;-60
2023/11/13 12:46:06;;;;;;;2.53;1.52;;;;;;;;;;4994937;28;20122;-60
2023/11/13 12:49:11;;;;;;;7.55;2.15;;;;;;;;;;4994217;28;20034;-60
2023/11/13 12:51:55;;;;;;;2.40;1.30;;;;;;;;;;4930377;28;20118;-60
2023/11/13 12:54:53;;;;;;;2.60;1.48;;;;;;;;;;4977119;28;20030;-60
2023/11/13 12:57:20;;;;;;;2.53;1.58;;;;;;;;;;4974056;28;20781;-60
2023/11/13 13:00:00;;;;;;;5.22;1.90;;;;;;;;;;4976725;28;20038;-60
2023/11/13 13:02:59;;;;;;;5.43;1.67;;;;;;;;;;4975447;28;20105;-60
2023/11/13 13:05:31;;;;;;;3.65;1.77;;;;;;;;;;4972570;28;20043;-60
2023/11/13 13:11:04;;;;;;;2.33;1.38;;;;;;;;;;4968439;28;20026;-60
2023/11/13 13:13:43;;;;;;;2.92;1.05;;;;;;;;;;4980306;28;20038;-60
2023/11/13 13:16:38;;;;;;;;;;;;;;;;;;;;;
2023/11/13 13:19:19;;;;;;;3.80;1.30;;;;;;;;;;4975744;28;20107;-60
2023/11/13 13:21:54;;;;;;;1.45;0.85;;;;;;;;;;4970012;28;20062;-60
2023/11/13 13:30:36;;;;;;;1.88;1.17;;;;;;;;;;4978513;28;20467;-60
2023/11/13 13:33:13;;;;;;;1.48;0.90;;;;;;;;;;4956160;29;20095;-60
2023/11/13 13:36:00;;;;;;;2.72;1.15;;;;;;;;;;4952723;28;20123;-60
2023/11/13 13:42:06;;;;;;;4.15;1.08;;;;;;;;;;4937565;29;20130;-60
2023/11/13 13:47:46;;;;;;;6.15;1.17;;;;;;;;;;4979247;28;20053;-60
2023/11/13 13:50:20;;;;;;;3.28;1.38;;;;;;;;;;4979788;28;20496;-60
2023/11/13 13:52:56;;;;;;;1.88;0.90;;;;;;;;;;4979693;28;20436;-60
2023/11/13 13:55:38;;;;;;;1.42;0.70;;;;;;;;;;4978679;28;20042;-60
2023/11/13 13:58:07;;;;;;;1.73;0.85;;;;;;;;;;4979121;28;20026;-60
2023/11/13 14:00:36;;;;;;;3.13;1.00;;;;;;;;;;4978481;28;20042;-60
2023/11/13 14:03:22;;;;;;;0.93;0.50;;;;;;;;;;4979378;28;20035;-60
2023/11/13 14:06:16;;;;;;;1.92;1.00;;;;;;;;;;4979353;28;20060;-60
2023/11/13 14:12:03;;;;;;;4.05;1.20;;;;;;;;;;4975360;28;20034;-60
2023/11/13 14:14:36;;;;;;;2.15;0.70;;;;;;;;;;4978672;28;20043;-60
2023/11/13 14:17:08;;;;;;;3.67;0.85;;;;;;;;;;4976209;28;20050;-60
2023/11/13 14:19:44;;;;;;;4.65;0.90;;;;;;;;;;4993530;28;20030;-60
2023/11/13 14:22:22;;;;;;;1.60;0.75;;;;;;;;;;4985481;28;20073;-60
2023/11/13 14:25:09;;;;;;;3.25;0.73;;;;;;;;;;4997272;28;20069;-60
2023/11/13 14:37:20;;;;;;;3.63;0.82;;;;;;;;;;4976664;28;20070;-60
2023/11/13 14:43:20;;;;;;;0.75;0.40;;;;;;;;;;4968582;28;20030;-60
2023/11/13 14:46:02;;;;;;;1.52;0.75;;;;;;;;;;4976975;28;20039;-60
2023/11/13 14:49:00;;;;;;;2.28;0.57;;;;;;;;;;4958420;28;20039;-60
2023/11/13 14:51:40;;;;;;;1.50;0.80;;;;;;;;;;4956937;28;20047;-60
2023/11/13 14:54:15;;;;;;;3.65;1.10;;;;;;;;;;4951865;28;20043;-60
2023/11/13 14:59:53;;;;;;;1.45;0.85;;;;;;;;;;4958013;29;20678;-60
2023/11/13 15:02:40;;;;;;;1.67;0.75;;;;;;;;;;4961987;28;20069;-59
2023/11/13 15:05:16;;;;;;;3.35;1.00;;;;;;;;;;4977550;28;20035;-60
2023/11/13 15:07:53;;;;;;;1.85;0.70;;;;;;;;;;4942191;28;20482;-60
2023/11/13 15:10:35;;;;;;;1.88;0.73;;;;;;;;;;4977054;28;20035;-60
2023/11/13 15:13:08;;;;;;;1.02;0.63;;;;;;;;;;4973766;28;20037;-59
2023/11/13 15:15:56;;;;;;;2.22;0.70;;;;;;;;;;4975608;28;20034;-59
2023/11/13 15:18:34;;;;;;;4.40;1.05;;;;;;;;;;4977166;28;20122;-60
2023/11/13 15:21:13;;;;;;;1.80;1.10;;;;;;;;;;4975882;28;20519;-60
2023/11/13 15:26:48;;;;;;;2.83;0.60;;;;;;;;;;4977723;28;20378;-57
2023/11/13 15:29:23;;;;;;;2.40;0.80;;;;;;;;;;4977955;28;20039;-58
2023/11/13 15:32:00;;;;;;;1.40;0.57;;;;;;;;;;4977493;28;20478;-58
2023/11/13 15:34:36;;;;;;;2.92;0.63;;;;;;;;;;4977160;28;20338;-58
2023/11/13 15:37:11;;;;;;;1.85;0.90;;;;;;;;;;4977096;28;20030;-58
2023/11/13 15:39:44;;;;;;;1.55;0.82;;;;;;;;;;4976161;28;20031;-58
2023/11/13 15:42:32;;;;;;;5.13;0.77;;;;;;;;;;4972913;28;20362;-58
2023/11/13 15:45:10;;;;;;;1.23;0.50;;;;;;;;;;4972043;28;20046;-58
2023/11/13 15:47:53;;;;;;;1.77;0.70;;;;;;;;;;4971847;28;20544;-58
2023/11/13 15:50:27;;;;;;;1.77;0.73;;;;;;;;;;4973208;28;20035;-57
2023/11/13 15:53:09;;;;;;;1.50;0.80;;;;;;;;;;4972369;28;20125;-57
2023/11/13 15:55:38;;;;;;;1.88;0.90;;;;;;;;;;4968710;28;20406;-58
2023/11/13 15:58:11;;;;;;;7.00;1.15;;;;;;;;;;4967459;28;20078;-59
2023/11/13 16:00:46;;;;;;;1.65;0.55;;;;;;;;;;4973748;28;20034;-58
2023/11/13 16:03:15;;;;;;;1.90;0.55;;;;;;;;;;4972004;28;20029;-58
2023/11/13 16:05:53;;;;;;;2.42;0.88;;;;;;;;;;4973284;28;20477;-58
2023/11/13 16:08:20;;;;;;;1.58;0.60;;;;;;;;;;4971869;28;20028;-58
2023/11/13 16:11:14;;;;;;;1.20;0.43;;;;;;;;;;4966939;28;20422;-58
2023/11/13 16:13:59;;;;;;;1.65;0.82;;;;;;;;;;4972272;28;20046;-58
2023/11/13 16:16:28;;;;;;;1.85;0.77;;;;;;;;;;4933783;28;20031;-58
2023/11/13 16:19:10;;;;;;;1.88;0.90;;;;;;;;;;4953853;29;20401;-58
2023/11/13 16:21:45;;;;;;;1.48;0.68;;;;;;;;;;4983858;28;20027;-58
2023/11/13 16:24:25;;;;;;;1.30;0.60;;;;;;;;;;4965036;28;20437;-58
2023/11/13 16:30:36;;;;;;;1.58;0.70;;;;;;;;;;4973367;28;20382;-58
2023/11/13 16:36:31;;;;;;;1.10;0.47;;;;;;;;;;4918048;28;20499;-59
2023/11/13 16:39:10;;;;;;;1.67;0.60;;;;;;;;;;4952137;29;20053;-59
2023/11/13 16:41:46;;;;;;;1.83;0.65;;;;;;;;;;4955266;28;20482;-59
2023/11/13 16:44:35;;;;;;;1.17;0.63;;;;;;;;;;4928856;28;20535;-59
2023/11/13 16:47:14;;;;;;;;;;;;;;;;;;;;;
2023/11/13 16:50:10;;;;;;;1.85;0.80;;;;;;;;;;4971541;28;20027;-59
2023/11/13 16:52:56;;;;;;;1.95;1.08;;;;;;;;;;4961818;28;20039;-59
2023/11/13 16:55:51;;;;;;;0.82;0.40;;;;;;;;;;4983277;28;20509;-59
2023/11/13 16:58:53;;;;;;;1.20;0.50;;;;;;;;;;4965251;28;20073;-59
2023/11/13 17:01:44;;;;;;;0.93;0.45;;;;;;;;;;4929504;29;20497;-59
2023/11/13 17:04:16;;;;;;;1.70;0.45;;;;;;;;;;4929943;29;20040;-59
2023/11/13 17:07:10;;;;;;;2.67;0.82;;;;;;;;;;4964454;28;20050;-59
2023/11/13 17:12:27;;;;;;;1.05;0.40;;;;;;;;;;4973205;28;20569;-59
2023/11/13 17:15:05;;;;;;;0.65;0.40;;;;;;;;;;4974515;28;20038;-59
2023/11/13 17:17:49;;;;;;;1.40;0.60;;;;;;;;;;4970681;28;20039;-59
2023/11/13 17:20:39;;;;;;;1.45;0.50;;;;;;;;;;4972413;28;20037;-59
2023/11/13 17:23:13;;;;;;;1.35;0.60;;;;;;;;;;4974001;28;20035;-59
2023/11/13 17:26:02;;;;;;;1.60;0.70;;;;;;;;;;4984190;28;20363;-59
2023/11/13 17:28:54;;;;;;;1.42;0.40;;;;;;;;;;4962969;28;20035;-59
2023/11/13 17:31:32;;;;;;;1.95;0.52;;;;;;;;;;4966325;28;20066;-59
2023/11/13 17:34:02;;;;;;;1.10;0.50;;;;;;;;;;4973495;28;20039;-59
2023/11/13 17:37:07;;;;;;;1.05;0.50;;;;;;;;;;4973329;28;20022;-59
2023/11/13 17:40:05;;;;;;;0.98;0.60;;;;;;;;;;4967541;28;20477;-59
2023/11/13 17:42:57;;;;;;;0.85;0.40;;;;;;;;;;4918140;28;20036;-59
2023/11/13 17:45:45;;;;;;;;;;;;;;;;;;;;;
2023/11/13 17:48:23;;;;;;;1.08;0.50;;;;;;;;;;4970045;28;20047;-59
2023/11/13 17:50:57;;;;;;;1.25;0.60;;;;;;;;;;4971157;28;20444;-59
2023/11/13 17:53:32;;;;;;;1.08;0.40;;;;;;;;;;4958595;28;20122;-59
2023/11/13 17:56:17;;;;;;;0.93;0.50;;;;;;;;;;4975423;28;20061;-59
2023/11/13 18:01:49;;;;;;;1.02;0.52;;;;;;;;;;4976025;28;20521;-59
2023/11/13 18:04:45;;;;;;;0.65;0.40;;;;;;;;;;4955698;28;20107;-59
2023/11/13 18:07:43;;;;;;;1.20;0.60;;;;;;;;;;4951131;28;20043;-59
2023/11/13 18:10:20;;;;;;;1.40;0.30;;;;;;;;;;4946107;28;20513;-59
2023/11/13 18:12:54;;;;;;;0.90;0.32;;;;;;;;;;4969503;28;20034;-59
2023/11/13 18:18:30;;;;;;;1.05;0.47;;;;;;;;;;4984285;28;20034;-59
2023/11/13 18:24:12;;;;;;;1.45;0.50;;;;;;;;;;4971799;28;20053;-59
2023/11/13 18:26:56;;;;;;;1.15;0.43;;;;;;;;;;4969232;28;20513;-59
2023/11/13 18:29:55;;;;;;;1.73;0.50;;;;;;;;;;4972801;28;20030;-59
2023/11/13 18:32:48;;;;;;;1.23;0.50;;;;;;;;;;4971551;28;20051;-59
2023/11/13 18:35:41;;;;;;;1.05;0.50;;;;;;;;;;4972769;28;20042;-59
2023/11/13 18:38:29;;;;;;;;;;;;;;;;;;;;;
2023/11/13 18:41:12;;;;;;;0.90;0.32;;;;;;;;;;4972544;28;20038;-59
2023/11/13 18:43:57;;;;;;;1.90;0.40;;;;;;;;;;4972299;28;20043;-59
2023/11/13 18:46:30;;;;;;;0.60;0.30;;;;;;;;;;4970456;28;20043;-59
2023/11/13 18:48:59;;;;;;;1.02;0.50;;;;;;;;;;4971753;28;20034;-59
2023/11/13 18:51:41;;;;;;;0.68;0.35;;;;;;;;;;4977169;28;20049;-59
2023/11/13 18:57:43;;;;;;;0.80;0.43;;;;;;;;;;4912808;28;20039;-60
2023/11/13 19:00:45;;;;;;;;;;;;;;;;;;;;;
2023/11/13 19:06:10;;;;;;;0.73;0.40;;;;;;;;;;4970021;28;20448;-60
2023/11/13 19:08:52;;;;;;;1.60;0.60;;;;;;;;;;4974081;28;20073;-60
2023/11/13 19:11:29;;;;;;;1.00;0.45;;;;;;;;;;4955930;28;20050;-59
2023/11/13 19:17:17;;;;;;;1.13;0.50;;;;;;;;;;4943831;29;20051;-60
2023/11/13 19:20:17;;;;;;;0.57;0.38;;;;;;;;;;4951564;29;20039;-60
2023/11/13 19:22:45;;;;;;;0.73;0.38;;;;;;;;;;4876580;29;20080;-60
2023/11/13 19:25:23;;;;;;;0.85;0.40;;;;;;;;;;4843393;29;20097;-60
2023/11/13 19:28:30;;;;;;;1.60;0.65;;;;;;;;;;4944648;29;20054;-60
2023/11/13 19:30:58;;;;;;;0.95;0.52;;;;;;;;;;4876560;29;20045;-60
2023/11/13 19:33:29;;;;;;;0.77;0.43;;;;;;;;;;4856996;29;20044;-60
2023/11/13 19:36:25;;;;;;;0.70;0.30;;;;;;;;;;4868608;29;20095;-60
2023/11/13 19:38:57;;;;;;;0.40;0.20;;;;;;;;;;4919915;29;20126;-61
2023/11/13 19:41:35;;;;;;;0.88;0.40;;;;;;;;;;4951183;28;20118;-60
2023/11/13 19:44:15;;;;;;;0.68;0.30;;;;;;;;;;4951201;28;20508;-60
2023/11/13 19:47:09;;;;;;;0.95;0.40;;;;;;;;;;4951617;29;21116;-60
2023/11/13 19:49:40;;;;;;;0.70;0.32;;;;;;;;;;4943953;29;20417;-60
2023/11/13 19:52:47;;;;;;;0.80;0.40;;;;;;;;;;4969572;28;20038;-60